Time;durP1;ratioP1;P1;durP2;ratioP2;P2;SDS_P1;SDS_P2;PMS_P1;PMS_P2;Temp;Humidity;BMP_temperature;BMP_pressure;BME280_temperature;BME280_humidity;BME280_pressure;Samples;Min_cycle;Max_cycle;Signal;HPM_P1;HPM_P2
2023/10/31 00:01:04;;;;;;;0.60;0.60;;;12.20;99.90;;;;;;5076346;28;20104;-71
2023/10/31 00:03:31;;;;;;;0.60;0.60;;;12.20;99.90;;;;;;5076297;28;20075;-73
2023/10/31 00:05:56;;;;;;;0.60;0.60;;;12.20;99.90;;;;;;5076559;28;20040;-72
2023/10/31 00:08:24;;;;;;;0.80;0.80;;;12.20;99.90;;;;;;5076226;28;20056;-72
2023/10/31 00:10:49;;;;;;;0.50;0.50;;;12.20;99.90;;;;;;5076011;28;20494;-71
2023/10/31 00:13:15;;;;;;;0.60;0.60;;;12.20;99.90;;;;;;5076173;28;20115;-71
2023/10/31 00:15:41;;;;;;;0.60;0.60;;;12.20;99.90;;;;;;5076176;28;20076;-72
2023/10/31 00:18:07;;;;;;;0.60;0.60;;;12.20;99.90;;;;;;5075995;28;20041;-73
2023/10/31 00:20:32;;;;;;;0.60;0.60;;;12.20;99.90;;;;;;5076491;28;20471;-72
2023/10/31 00:22:58;;;;;;;0.70;0.70;;;12.20;99.90;;;;;;5075201;28;20076;-72
2023/10/31 00:25:23;;;;;;;0.60;0.60;;;12.20;99.90;;;;;;5076020;28;20041;-71
2023/10/31 00:27:50;;;;;;;0.70;0.70;;;12.20;99.90;;;;;;5075955;28;20461;-71
2023/10/31 00:30:15;;;;;;;0.60;0.60;;;12.20;99.90;;;;;;5075886;28;20040;-72
2023/10/31 00:32:41;;;;;;;0.60;0.60;;;12.20;99.90;;;;;;5075862;28;20286;-72
2023/10/31 00:35:07;;;;;;;0.65;0.60;;;12.20;99.90;;;;;;5074288;28;20028;-72
2023/10/31 00:37:32;;;;;;;0.70;0.70;;;12.20;99.90;;;;;;5075629;28;20040;-72
2023/10/31 00:39:58;;;;;;;0.60;0.60;;;12.20;99.90;;;;;;5075673;28;20124;-73
2023/10/31 00:42:24;;;;;;;0.60;0.60;;;12.20;99.90;;;;;;5075796;28;20120;-73
2023/10/31 00:44:49;;;;;;;0.90;0.90;;;12.20;99.90;;;;;;5075651;28;20346;-72
2023/10/31 00:47:15;;;;;;;0.60;0.60;;;12.20;99.90;;;;;;5075538;28;20369;-72
2023/10/31 00:49:41;;;;;;;0.60;0.60;;;12.20;99.90;;;;;;5075329;28;20048;-73
2023/10/31 00:52:06;;;;;;;0.50;0.50;;;12.20;99.90;;;;;;5075167;28;20472;-73
2023/10/31 00:54:32;;;;;;;0.60;0.60;;;12.20;99.90;;;;;;5075508;28;20047;-73
2023/10/31 00:56:57;;;;;;;0.50;0.50;;;12.20;99.90;;;;;;5075019;28;20410;-72
2023/10/31 00:59:23;;;;;;;0.77;0.77;;;12.20;99.90;;;;;;5075365;28;20082;-72
2023/10/31 01:01:49;;;;;;;0.60;0.60;;;12.20;99.90;;;;;;5075382;28;20044;-73
2023/10/31 01:04:15;;;;;;;0.70;0.70;;;12.20;99.90;;;;;;5075292;28;20051;-72
2023/10/31 01:06:42;;;;;;;0.60;0.60;;;12.20;99.90;;;;;;5075221;28;20116;-72
2023/10/31 01:09:07;;;;;;;0.60;0.60;;;12.20;99.90;;;;;;5074929;28;20137;-72
2023/10/31 01:11:33;;;;;;;1.33;1.02;;;12.20;99.90;;;;;;5074817;28;20048;-72
2023/10/31 01:13:58;;;;;;;0.93;0.93;;;12.20;99.90;;;;;;5075180;28;20032;-74
2023/10/31 01:16:24;;;;;;;0.60;0.60;;;12.10;99.90;;;;;;5074894;28;20036;-73
2023/10/31 01:18:50;;;;;;;0.85;0.82;;;12.80;99.90;;;;;;5074569;28;20047;-73
2023/10/31 01:21:15;;;;;;;0.60;0.60;;;12.10;99.90;;;;;;5073711;28;20040;-72
2023/10/31 01:23:41;;;;;;;1.42;1.00;;;12.10;99.90;;;;;;5074843;28;20090;-73
2023/10/31 01:26:06;;;;;;;1.45;1.35;;;12.10;99.90;;;;;;5074834;28;20457;-71
2023/10/31 01:28:32;;;;;;;1.13;0.70;;;12.10;99.90;;;;;;5074715;28;20043;-71
2023/10/31 01:30:58;;;;;;;0.60;0.60;;;12.10;99.90;;;;;;5074385;28;20055;-71
2023/10/31 01:33:23;;;;;;;0.80;0.80;;;12.10;99.90;;;;;;5074559;28;20044;-72
2023/10/31 01:35:49;;;;;;;0.70;0.70;;;12.10;99.90;;;;;;5074632;28;20036;-71
2023/10/31 01:38:14;;;;;;;0.70;0.70;;;12.10;99.90;;;;;;5074485;28;20047;-72
2023/10/31 01:40:40;;;;;;;0.60;0.60;;;12.10;99.90;;;;;;5074479;28;20369;-73
2023/10/31 01:43:06;;;;;;;0.60;0.60;;;12.10;99.90;;;;;;5074591;28;20143;-72
2023/10/31 01:45:31;;;;;;;0.73;0.73;;;12.10;99.90;;;;;;5074230;28;20127;-73
2023/10/31 01:47:58;;;;;;;0.60;0.60;;;12.60;99.90;;;;;;5074097;28;20141;-72
2023/10/31 01:50:24;;;;;;;2.25;1.08;;;12.10;99.90;;;;;;5074221;28;20174;-72
2023/10/31 01:52:51;;;;;;;0.50;0.50;;;12.10;99.90;;;;;;5074634;28;20119;-72
2023/10/31 01:55:17;;;;;;;0.65;0.65;;;12.60;99.90;;;;;;5074201;28;20045;-72
2023/10/31 01:57:45;;;;;;;0.88;0.88;;;12.10;99.90;;;;;;5074106;28;20044;-72
2023/10/31 02:00:12;;;;;;;0.55;0.55;;;12.10;99.90;;;;;;5073794;28;20100;-71
2023/10/31 02:02:42;;;;;;;0.50;0.50;;;12.00;99.90;;;;;;5072695;28;20040;-73
2023/10/31 02:05:08;;;;;;;0.50;0.50;;;11.90;99.90;;;;;;5074028;28;20165;-72
2023/10/31 02:07:33;;;;;;;0.50;0.50;;;11.80;99.90;;;;;;5074019;28;20094;-73
2023/10/31 02:09:59;;;;;;;0.50;0.50;;;11.70;99.90;;;;;;5073905;28;20041;-72
2023/10/31 02:12:37;;;;;;;0.60;0.60;;;11.80;99.90;;;;;;5073956;28;20044;-72
2023/10/31 02:15:03;;;;;;;0.60;0.60;;;11.40;99.90;;;;;;5073877;28;20044;-72
2023/10/31 02:17:29;;;;;;;0.60;0.60;;;11.40;99.90;;;;;;5073977;28;20090;-72
2023/10/31 02:19:55;;;;;;;0.50;0.50;;;11.40;99.90;;;;;;5073845;28;20090;-72
2023/10/31 02:22:22;;;;;;;0.57;0.57;;;11.50;99.90;;;;;;5073835;28;20476;-73
2023/10/31 02:24:48;;;;;;;;;;;11.20;99.90;;;;;;5074105;28;20050;-73
2023/10/31 02:27:13;;;;;;;0.60;0.60;;;11.10;99.90;;;;;;5073649;28;19916;-71
2023/10/31 02:29:40;;;;;;;0.60;0.60;;;11.20;99.90;;;;;;5073824;28;20040;-72
2023/10/31 02:32:05;;;;;;;0.60;0.60;;;11.10;99.90;;;;;;5074177;28;20036;-71
2023/10/31 02:34:31;;;;;;;0.60;0.60;;;11.10;99.90;;;;;;5073472;28;20127;-72
2023/10/31 02:36:57;;;;;;;0.60;0.60;;;11.10;99.90;;;;;;5073649;28;20040;-71
2023/10/31 02:39:22;;;;;;;0.70;0.70;;;11.00;99.90;;;;;;5073746;28;20036;-72
2023/10/31 02:41:48;;;;;;;0.60;0.60;;;11.00;99.90;;;;;;5073605;28;20044;-72
2023/10/31 02:44:15;;;;;;;0.50;0.50;;;10.90;99.90;;;;;;5073293;28;20048;-73
2023/10/31 02:46:41;;;;;;;0.60;0.60;;;10.90;99.90;;;;;;5073151;28;20590;-71
2023/10/31 02:49:08;;;;;;;0.60;0.60;;;10.90;99.90;;;;;;5073572;28;20033;-72
2023/10/31 02:51:34;;;;;;;0.60;0.60;;;10.90;99.90;;;;;;5073837;28;20070;-71
2023/10/31 02:54:00;;;;;;;0.70;0.70;;;10.80;99.90;;;;;;5073527;28;20538;-71
2023/10/31 02:56:25;;;;;;;0.60;0.60;;;10.90;99.90;;;;;;5073461;28;20052;-72
2023/10/31 02:58:51;;;;;;;0.60;0.60;;;10.90;99.90;;;;;;5075476;28;20079;-71
2023/10/31 03:01:17;;;;;;;0.60;0.60;;;10.80;99.90;;;;;;5077350;28;20037;-72
2023/10/31 03:03:43;;;;;;;0.63;0.63;;;10.80;99.90;;;;;;5077462;28;20040;-73
2023/10/31 03:06:09;;;;;;;0.60;0.60;;;10.80;99.90;;;;;;5077537;28;20070;-72
2023/10/31 03:08:34;;;;;;;0.70;0.70;;;10.70;99.90;;;;;;5077295;28;20052;-73
2023/10/31 03:11:00;;;;;;;0.70;0.70;;;11.30;99.90;;;;;;5077428;28;20040;-74
2023/10/31 03:13:25;;;;;;;0.70;0.70;;;10.70;99.90;;;;;;5077386;28;20440;-75
2023/10/31 03:15:51;;;;;;;0.60;0.60;;;10.60;99.90;;;;;;5077256;28;20461;-72
2023/10/31 03:18:17;;;;;;;2.38;1.50;;;11.00;99.90;;;;;;5077660;28;20178;-71
2023/10/31 03:20:45;;;;;;;0.60;0.60;;;10.60;99.90;;;;;;5077300;28;20376;-71
2023/10/31 03:23:14;;;;;;;0.60;0.60;;;10.60;99.90;;;;;;5077241;28;20097;-72
2023/10/31 03:25:40;;;;;;;0.60;0.60;;;10.60;99.90;;;;;;5077164;28;20097;-71
2023/10/31 03:28:17;;;;;;;0.70;0.70;;;11.00;99.90;;;;;;5077238;28;20123;-71
2023/10/31 03:30:43;;;;;;;0.60;0.60;;;10.50;99.90;;;;;;5076821;28;20480;-71
2023/10/31 03:33:09;;;;;;;0.60;0.60;;;10.90;99.90;;;;;;5077034;28;20043;-71
2023/10/31 03:35:34;;;;;;;0.60;0.60;;;10.50;99.90;;;;;;5077012;28;20047;-71
2023/10/31 03:38:00;;;;;;;0.70;0.70;;;10.40;99.90;;;;;;5076871;28;20407;-72
2023/10/31 03:40:25;;;;;;;0.70;0.70;;;10.50;99.90;;;;;;5076965;28;20479;-73
2023/10/31 03:42:51;;;;;;;0.60;0.60;;;10.70;99.90;;;;;;5076780;28;20490;-72
2023/10/31 03:45:17;;;;;;;0.70;0.70;;;10.30;99.90;;;;;;5076853;28;20040;-72
2023/10/31 03:47:42;;;;;;;1.45;1.35;;;10.40;99.90;;;;;;5076754;28;20122;-73
2023/10/31 03:50:09;;;;;;;0.60;0.60;;;10.30;99.90;;;;;;5076549;28;20043;-72
2023/10/31 03:52:34;;;;;;;0.70;0.70;;;10.30;99.90;;;;;;5076475;28;20441;-73
2023/10/31 03:55:00;;;;;;;0.60;0.60;;;10.70;99.90;;;;;;5076588;28;20071;-72
2023/10/31 03:57:26;;;;;;;0.70;0.70;;;10.30;99.90;;;;;;5076224;28;20048;-71
2023/10/31 03:59:51;;;;;;;0.82;0.82;;;10.40;99.90;;;;;;5075228;28;20044;-72
2023/10/31 04:02:17;;;;;;;0.70;0.70;;;10.30;99.90;;;;;;5076388;28;20068;-72
2023/10/31 04:04:42;;;;;;;0.70;0.70;;;10.30;99.90;;;;;;5076712;28;20048;-73
2023/10/31 04:07:08;;;;;;;0.70;0.70;;;10.20;99.90;;;;;;5076250;28;20457;-73
2023/10/31 04:09:34;;;;;;;0.70;0.70;;;10.30;99.90;;;;;;5076062;28;20083;-73
2023/10/31 04:11:59;;;;;;;0.77;0.77;;;10.30;99.90;;;;;;5076373;28;20051;-74
2023/10/31 04:14:25;;;;;;;0.70;0.70;;;10.30;99.90;;;;;;5076299;28;20072;-73
2023/10/31 04:16:50;;;;;;;0.70;0.70;;;10.30;99.90;;;;;;5076331;28;20036;-73
2023/10/31 04:19:16;;;;;;;0.70;0.70;;;10.30;99.90;;;;;;5076541;28;20044;-73
2023/10/31 04:21:41;;;;;;;0.65;0.65;;;10.30;99.90;;;;;;5076197;28;20040;-73
2023/10/31 04:24:07;;;;;;;0.70;0.70;;;10.30;99.90;;;;;;5076100;28;20182;-71
2023/10/31 04:26:33;;;;;;;0.60;0.60;;;10.30;99.90;;;;;;5076130;28;20037;-72
2023/10/31 04:28:59;;;;;;;0.70;0.70;;;10.30;99.90;;;;;;5074738;28;20036;-72
2023/10/31 04:31:24;;;;;;;0.70;0.70;;;10.30;99.90;;;;;;5075947;28;20086;-73
2023/10/31 04:33:50;;;;;;;0.70;0.70;;;10.30;99.90;;;;;;5075732;28;20123;-73
2023/10/31 04:36:15;;;;;;;0.60;0.60;;;10.30;99.90;;;;;;5075795;28;20048;-72
2023/10/31 04:38:41;;;;;;;0.70;0.70;;;10.40;99.90;;;;;;5075882;28;20068;-72
2023/10/31 04:41:08;;;;;;;3.05;2.45;;;10.50;99.90;;;;;;5075863;28;20044;-71
2023/10/31 04:43:33;;;;;;;0.70;0.70;;;10.30;99.90;;;;;;5075696;28;20044;-72
2023/10/31 04:45:59;;;;;;;0.70;0.70;;;10.70;99.90;;;;;;5075617;28;20036;-73
2023/10/31 04:48:24;;;;;;;0.70;0.70;;;10.30;99.90;;;;;;5075599;28;20071;-72
2023/10/31 04:50:50;;;;;;;0.70;0.70;;;10.30;99.90;;;;;;5075546;28;20040;-72
2023/10/31 04:53:16;;;;;;;0.70;0.70;;;10.30;99.90;;;;;;5074871;28;20041;-72
2023/10/31 04:55:41;;;;;;;0.70;0.70;;;10.30;99.90;;;;;;5075214;28;20546;-72
2023/10/31 04:58:09;;;;;;;0.70;0.70;;;10.30;99.90;;;;;;5074134;28;20202;-72
2023/10/31 05:00:35;;;;;;;0.70;0.70;;;10.60;99.90;;;;;;5075277;28;20090;-72
2023/10/31 05:03:02;;;;;;;0.70;0.70;;;10.30;99.90;;;;;;5075435;28;20460;-72
2023/10/31 05:05:28;;;;;;;0.70;0.70;;;10.40;99.90;;;;;;5075307;28;20051;-72
2023/10/31 05:07:53;;;;;;;0.70;0.70;;;10.30;99.90;;;;;;5074889;28;20476;-72
2023/10/31 05:10:19;;;;;;;0.70;0.70;;;10.40;99.90;;;;;;5074516;28;20032;-73
2023/10/31 05:12:45;;;;;;;0.70;0.70;;;10.40;99.90;;;;;;5074585;28;20461;-73
2023/10/31 05:15:10;;;;;;;0.70;0.70;;;10.80;99.90;;;;;;5074437;28;20117;-72
2023/10/31 05:17:36;;;;;;;0.70;0.70;;;10.40;99.90;;;;;;5074549;28;20040;-72
2023/10/31 05:20:02;;;;;;;0.65;0.65;;;10.30;99.90;;;;;;5074565;28;20456;-73
2023/10/31 05:22:27;;;;;;;0.70;0.70;;;10.30;99.90;;;;;;5073651;28;20040;-72
2023/10/31 05:24:53;;;;;;;0.88;0.77;;;10.90;99.90;;;;;;5074485;28;20053;-78
2023/10/31 05:27:19;;;;;;;0.70;0.70;;;10.30;99.90;;;;;;5084111;28;20476;-76
2023/10/31 05:29:45;;;;;;;0.70;0.70;;;10.30;99.90;;;;;;5074399;28;20098;-76
2023/10/31 05:32:10;;;;;;;0.63;0.63;;;10.30;99.90;;;;;;5073792;28;20127;-74
2023/10/31 05:34:36;;;;;;;0.70;0.70;;;10.20;99.90;;;;;;5074773;28;20052;-77
2023/10/31 05:37:02;;;;;;;0.70;0.70;;;10.30;99.90;;;;;;5074634;28;20028;-71
2023/10/31 05:39:27;;;;;;;0.70;0.70;;;10.20;99.90;;;;;;5074444;28;20365;-72
2023/10/31 05:41:53;;;;;;;0.70;0.70;;;10.20;99.90;;;;;;5074689;28;20090;-75
2023/10/31 05:44:18;;;;;;;0.70;0.70;;;10.20;99.90;;;;;;5074467;28;20465;-73
2023/10/31 05:46:44;;;;;;;0.70;0.70;;;10.20;99.90;;;;;;5074550;28;20460;-73
2023/10/31 05:49:10;;;;;;;0.70;0.70;;;10.20;99.90;;;;;;5074461;28;20126;-73
2023/10/31 05:51:36;;;;;;;0.60;0.60;;;10.20;99.90;;;;;;5074647;28;20036;-72
2023/10/31 05:54:01;;;;;;;0.77;0.77;;;10.20;99.90;;;;;;5074226;28;20388;-73
2023/10/31 05:56:27;;;;;;;0.80;0.80;;;10.20;99.90;;;;;;5074212;28;20495;-72
2023/10/31 05:58:53;;;;;;;0.70;0.70;;;10.10;99.90;;;;;;5072542;28;20076;-77
2023/10/31 06:01:18;;;;;;;0.73;0.73;;;10.10;99.90;;;;;;5074201;28;20039;-75
2023/10/31 06:03:44;;;;;;;0.70;0.70;;;10.10;99.90;;;;;;5073418;28;20040;-77
2023/10/31 06:06:11;;;;;;;0.70;0.70;;;10.20;99.90;;;;;;5072374;28;20050;-73
2023/10/31 06:08:38;;;;;;;0.85;0.85;;;10.10;99.90;;;;;;5070804;28;20472;-73
2023/10/31 06:11:04;;;;;;;0.70;0.70;;;10.20;99.90;;;;;;5072531;28;20054;-72
2023/10/31 06:13:31;;;;;;;0.70;0.70;;;10.10;99.90;;;;;;5073418;28;20486;-76
2023/10/31 06:16:00;;;;;;;0.70;0.70;;;10.20;99.90;;;;;;5073252;28;20310;-73
2023/10/31 06:18:26;;;;;;;0.75;0.75;;;10.30;99.90;;;;;;5074359;28;20379;-73
2023/10/31 06:20:52;;;;;;;0.68;0.68;;;10.10;99.90;;;;;;5073968;28;20115;-72
2023/10/31 06:23:18;;;;;;;0.70;0.70;;;10.30;99.90;;;;;;5073756;28;20053;-71
2023/10/31 06:25:44;;;;;;;0.70;0.70;;;10.10;99.90;;;;;;5073823;28;20058;-72
2023/10/31 06:28:10;;;;;;;2.70;1.08;;;10.20;99.90;;;;;;5073333;28;20033;-73
2023/10/31 06:30:35;;;;;;;0.70;0.70;;;10.10;99.90;;;;;;5073947;28;20043;-73
2023/10/31 06:33:01;;;;;;;0.80;0.80;;;10.10;99.90;;;;;;5073409;28;20040;-76
2023/10/31 06:35:27;;;;;;;0.70;0.70;;;10.10;99.90;;;;;;5073825;28;20152;-72
2023/10/31 06:37:56;;;;;;;0.70;0.70;;;10.10;99.90;;;;;;5073805;28;20361;-74
2023/10/31 06:40:21;;;;;;;0.60;0.60;;;10.10;99.90;;;;;;5073635;28;20166;-75
2023/10/31 06:42:47;;;;;;;0.70;0.70;;;10.10;99.90;;;;;;5072407;28;20127;-83
2023/10/31 06:45:13;;;;;;;0.70;0.70;;;10.00;99.90;;;;;;5073602;28;20527;-77
2023/10/31 06:47:38;;;;;;;0.70;0.70;;;10.10;99.90;;;;;;5073352;28;20478;-74
2023/10/31 06:50:04;;;;;;;0.70;0.70;;;10.10;99.90;;;;;;5072165;28;20380;-70
2023/10/31 06:52:30;;;;;;;0.80;0.80;;;10.00;99.90;;;;;;5073564;28;20043;-74
2023/10/31 06:54:56;;;;;;;0.70;0.70;;;10.00;99.90;;;;;;5073640;28;20044;-75
2023/10/31 06:57:21;;;;;;;0.70;0.70;;;10.00;99.90;;;;;;5073175;28;20071;-74
2023/10/31 06:59:47;;;;;;;0.70;0.70;;;10.00;99.90;;;;;;5073497;28;20040;-74
2023/10/31 07:02:13;;;;;;;0.80;0.80;;;10.00;99.90;;;;;;5073815;28;20090;-73
2023/10/31 07:04:39;;;;;;;2.08;1.98;;;10.00;99.90;;;;;;5073385;28;20036;-75
2023/10/31 07:07:05;;;;;;;0.70;0.70;;;10.00;99.90;;;;;;5073156;28;20113;-71
2023/10/31 07:09:56;;;;;;;0.75;0.75;;;10.00;99.90;;;;;;5055588;28;20084;-73
2023/10/31 07:12:21;;;;;;;0.70;0.70;;;10.00;99.90;;;;;;5071780;28;20044;-70
2023/10/31 07:14:47;;;;;;;0.73;0.73;;;10.00;99.90;;;;;;5073172;28;20044;-72
2023/10/31 07:17:13;;;;;;;0.70;0.70;;;10.10;99.90;;;;;;5072271;28;20033;-73
2023/10/31 07:19:41;;;;;;;1.13;0.90;;;10.00;99.90;;;;;;5073031;28;20138;-72
2023/10/31 07:22:06;;;;;;;0.70;0.70;;;10.80;99.90;;;;;;5071733;28;20044;-72
2023/10/31 07:24:32;;;;;;;0.75;0.75;;;10.10;99.90;;;;;;5071174;28;20045;-72
2023/10/31 07:26:57;;;;;;;0.70;0.70;;;10.10;99.90;;;;;;5072219;28;20072;-75
2023/10/31 07:29:23;;;;;;;0.70;0.70;;;10.10;99.90;;;;;;5072544;28;20123;-74
2023/10/31 07:31:48;;;;;;;0.70;0.70;;;10.10;99.90;;;;;;5073193;28;20033;-73
2023/10/31 07:34:15;;;;;;;0.65;0.65;;;10.30;99.90;;;;;;5073196;28;20041;-72
2023/10/31 07:36:41;;;;;;;0.70;0.70;;;10.10;99.90;;;;;;5073033;28;20469;-73
2023/10/31 07:39:07;;;;;;;0.80;0.80;;;10.20;99.90;;;;;;5073169;28;20047;-71
2023/10/31 07:41:33;;;;;;;0.70;0.70;;;10.20;99.90;;;;;;5072778;28;20499;-73
2023/10/31 07:43:58;;;;;;;0.65;0.65;;;10.20;99.90;;;;;;5073727;28;20123;-71
2023/10/31 07:46:24;;;;;;;0.70;0.70;;;10.20;99.90;;;;;;5076740;28;20048;-71
2023/10/31 07:48:50;;;;;;;0.70;0.70;;;10.20;99.90;;;;;;5076775;28;20464;-71
2023/10/31 07:51:16;;;;;;;0.70;0.70;;;10.20;99.90;;;;;;5076681;28;20094;-72
2023/10/31 07:53:41;;;;;;;0.70;0.70;;;10.30;99.90;;;;;;5076640;28;20047;-74
2023/10/31 07:56:18;;;;;;;0.73;0.73;;;10.30;99.90;;;;;;5076321;28;20476;-71
2023/10/31 07:58:44;;;;;;;0.70;0.70;;;10.30;99.90;;;;;;5077066;28;20036;-71
2023/10/31 08:01:10;;;;;;;0.80;0.80;;;10.30;99.90;;;;;;5076154;28;20526;-72
2023/10/31 08:03:39;;;;;;;0.70;0.70;;;10.30;99.90;;;;;;5076290;28;20048;-71
2023/10/31 08:06:07;;;;;;;0.70;0.70;;;10.30;99.90;;;;;;5076561;28;20041;-71
2023/10/31 08:08:33;;;;;;;0.70;0.70;;;10.40;99.90;;;;;;5076232;28;20123;-74
2023/10/31 08:10:59;;;;;;;0.70;0.70;;;10.50;99.90;;;;;;5076680;28;20082;-73
2023/10/31 08:13:25;;;;;;;0.70;0.70;;;10.50;99.90;;;;;;5076361;28;20044;-71
2023/10/31 08:15:50;;;;;;;1.55;1.45;;;10.40;99.90;;;;;;5076163;28;20059;-71
2023/10/31 08:18:16;;;;;;;0.68;0.68;;;10.80;99.90;;;;;;5074849;28;20044;-71
2023/10/31 08:20:43;;;;;;;0.70;0.70;;;10.60;99.90;;;;;;5076099;28;20536;-75
2023/10/31 08:23:08;;;;;;;0.70;0.70;;;10.90;99.90;;;;;;5075749;28;20380;-72
2023/10/31 08:25:34;;;;;;;0.70;0.70;;;10.60;99.90;;;;;;5076072;28;20041;-71
2023/10/31 08:28:00;;;;;;;0.60;0.60;;;10.60;99.90;;;;;;5076017;28;20036;-73
2023/10/31 08:30:25;;;;;;;0.60;0.60;;;10.80;99.90;;;;;;5075958;28;20077;-75
2023/10/31 08:32:51;;;;;;;0.70;0.70;;;11.60;99.90;;;;;;5075955;28;20124;-72
2023/10/31 08:35:17;;;;;;;0.70;0.70;;;10.70;99.90;;;;;;5075887;28;20036;-73
2023/10/31 08:37:42;;;;;;;0.70;0.70;;;10.80;99.90;;;;;;5075702;28;20036;-72
2023/10/31 08:40:08;;;;;;;0.70;0.70;;;11.00;99.90;;;;;;5075775;28;20037;-73
2023/10/31 08:42:34;;;;;;;0.80;0.80;;;10.80;99.90;;;;;;5075806;28;20080;-72
2023/10/31 08:44:59;;;;;;;0.60;0.60;;;10.80;99.90;;;;;;5075712;28;20318;-73
2023/10/31 08:47:25;;;;;;;0.63;0.63;;;10.90;99.90;;;;;;5075667;28;20075;-70
2023/10/31 08:49:51;;;;;;;0.68;0.68;;;10.90;99.90;;;;;;5075727;28;20040;-70
2023/10/31 08:52:17;;;;;;;0.70;0.70;;;11.00;99.90;;;;;;5075516;28;20354;-74
2023/10/31 08:54:43;;;;;;;0.70;0.70;;;11.50;99.90;;;;;;5075275;28;20533;-73
2023/10/31 08:57:09;;;;;;;0.70;0.70;;;11.20;99.90;;;;;;5074627;28;20040;-75
2023/10/31 08:59:35;;;;;;;0.70;0.70;;;11.20;99.90;;;;;;5075695;28;20504;-71
2023/10/31 09:02:01;;;;;;;0.60;0.60;;;11.30;99.90;;;;;;5075274;28;20376;-73
2023/10/31 09:04:27;;;;;;;0.70;0.70;;;11.40;99.90;;;;;;5074961;28;20044;-71
2023/10/31 09:06:53;;;;;;;0.60;0.60;;;11.50;99.90;;;;;;5075206;28;20041;-73
2023/10/31 09:09:19;;;;;;;0.60;0.60;;;11.60;99.90;;;;;;5075020;28;20118;-71
2023/10/31 09:11:44;;;;;;;0.70;0.70;;;11.50;99.90;;;;;;5075407;28;20457;-86
2023/10/31 09:14:10;;;;;;;0.60;0.60;;;11.80;99.90;;;;;;5074468;28;20127;-73
2023/10/31 09:16:35;;;;;;;0.60;0.60;;;11.60;99.90;;;;;;5075057;28;20033;-73
2023/10/31 09:19:01;;;;;;;0.60;0.60;;;11.60;99.90;;;;;;5075020;28;20040;-72
2023/10/31 09:21:27;;;;;;;0.60;0.60;;;11.70;99.90;;;;;;5074916;28;20049;-72
2023/10/31 09:23:53;;;;;;;0.65;0.65;;;11.70;99.90;;;;;;5075436;28;20064;-72
2023/10/31 09:26:20;;;;;;;0.60;0.60;;;11.80;99.90;;;;;;5074842;28;20451;-72
2023/10/31 09:28:49;;;;;;;0.80;0.80;;;11.80;99.90;;;;;;5075037;28;20365;-72
2023/10/31 09:31:18;;;;;;;0.60;0.60;;;11.80;99.90;;;;;;5074778;28;20426;-72
2023/10/31 09:33:45;;;;;;;0.60;0.60;;;11.80;99.90;;;;;;5074652;28;20037;-73
2023/10/31 09:36:10;;;;;;;;;;;11.90;99.90;;;;;;5074997;28;20036;-71
2023/10/31 09:38:36;;;;;;;0.60;0.60;;;11.90;99.90;;;;;;5074670;28;19922;-71
2023/10/31 09:41:04;;;;;;;0.80;0.80;;;11.90;99.90;;;;;;5074654;28;20041;-72
2023/10/31 09:43:29;;;;;;;1.02;0.93;;;11.90;99.90;;;;;;5074838;28;20033;-71
2023/10/31 09:45:56;;;;;;;0.60;0.60;;;12.20;99.90;;;;;;5074603;28;20081;-72
2023/10/31 09:48:22;;;;;;;0.60;0.60;;;12.00;99.90;;;;;;5074404;28;20037;-71
2023/10/31 09:50:49;;;;;;;0.70;0.70;;;11.90;99.90;;;;;;5074325;28;20048;-71
2023/10/31 09:53:18;;;;;;;0.60;0.60;;;12.20;99.90;;;;;;5074295;28;20051;-72
2023/10/31 09:55:46;;;;;;;0.60;0.60;;;12.10;99.90;;;;;;5074337;28;20453;-72
2023/10/31 09:58:12;;;;;;;0.60;0.60;;;12.30;99.90;;;;;;5073288;28;20132;-70
2023/10/31 10:00:40;;;;;;;0.63;0.63;;;12.30;99.90;;;;;;5073935;28;20079;-71
2023/10/31 10:03:09;;;;;;;0.60;0.60;;;12.30;99.90;;;;;;5073007;28;20106;-72
2023/10/31 10:05:35;;;;;;;0.60;0.60;;;12.90;99.90;;;;;;5073465;28;20384;-77
2023/10/31 10:08:03;;;;;;;0.70;0.70;;;12.30;99.90;;;;;;5072822;28;20128;-71
2023/10/31 10:10:29;;;;;;;0.60;0.60;;;12.40;99.90;;;;;;5073723;28;20040;-72
2023/10/31 10:12:55;;;;;;;0.60;0.60;;;12.30;99.90;;;;;;5073046;28;20044;-74
2023/10/31 10:15:21;;;;;;;0.60;0.60;;;12.40;99.90;;;;;;5070967;28;20472;-73
2023/10/31 10:17:51;;;;;;;0.60;0.60;;;12.30;99.90;;;;;;5071808;28;20267;-72
2023/10/31 10:20:17;;;;;;;0.60;0.60;;;12.40;99.90;;;;;;5073232;28;20048;-71
2023/10/31 10:22:44;;;;;;;0.60;0.60;;;12.80;99.90;;;;;;5074363;28;20405;-72
2023/10/31 10:25:15;;;;;;;0.57;0.57;;;12.30;99.90;;;;;;5074212;28;20132;-71
2023/10/31 10:27:41;;;;;;;0.60;0.60;;;12.30;99.90;;;;;;5073872;28;20044;-73
2023/10/31 10:30:09;;;;;;;0.60;0.60;;;12.30;99.90;;;;;;5073777;28;20044;-72
2023/10/31 10:32:34;;;;;;;0.60;0.60;;;12.30;99.90;;;;;;5073676;28;20044;-72
2023/10/31 10:35:00;;;;;;;0.57;0.57;;;12.20;99.90;;;;;;5073788;28;20111;-71
2023/10/31 10:37:27;;;;;;;0.60;0.60;;;12.30;99.90;;;;;;5074093;28;20032;-71
2023/10/31 10:39:55;;;;;;;0.60;0.60;;;12.50;99.90;;;;;;5073699;28;20037;-76
2023/10/31 10:42:29;;;;;;;0.60;0.60;;;12.00;99.90;;;;;;5073785;28;20036;-72
2023/10/31 10:44:57;;;;;;;0.60;0.60;;;12.10;99.90;;;;;;5073848;28;20036;-71
2023/10/31 10:47:24;;;;;;;0.60;0.60;;;12.70;99.90;;;;;;5073582;28;20047;-72
2023/10/31 10:49:58;;;;;;;0.60;0.60;;;12.00;99.90;;;;;;5072944;28;20036;-71
2023/10/31 10:52:33;;;;;;;0.60;0.60;;;12.00;99.90;;;;;;5072309;28;20032;-71
2023/10/31 10:55:08;;;;;;;0.60;0.60;;;12.00;99.90;;;;;;5072683;28;20044;-71
2023/10/31 10:58:05;;;;;;;0.60;0.60;;;12.00;99.90;;;;;;5073438;28;20032;-73
2023/10/31 11:00:31;;;;;;;0.60;0.60;;;12.00;99.90;;;;;;5071576;28;20401;-71
2023/10/31 11:02:57;;;;;;;0.60;0.60;;;12.00;99.90;;;;;;5072980;28;20095;-73
2023/10/31 11:05:24;;;;;;;0.60;0.60;;;12.00;99.90;;;;;;5072140;28;21444;-74
2023/10/31 11:07:52;;;;;;;0.60;0.60;;;12.00;99.90;;;;;;5071541;28;20093;-72
2023/10/31 11:10:19;;;;;;;0.50;0.50;;;11.90;99.90;;;;;;5070262;28;20080;-76
2023/10/31 11:12:45;;;;;;;0.60;0.60;;;11.90;99.90;;;;;;5072765;28;20426;-76
2023/10/31 11:15:14;;;;;;;0.60;0.60;;;11.90;99.90;;;;;;5072062;28;20045;-71
2023/10/31 11:17:42;;;;;;;0.50;0.50;;;11.90;99.90;;;;;;5071693;28;20448;-76
2023/10/31 11:20:10;;;;;;;0.60;0.60;;;11.90;99.90;;;;;;5074044;28;20165;-72
2023/10/31 11:22:44;;;;;;;0.60;0.60;;;11.80;99.90;;;;;;5075979;28;20060;-71
2023/10/31 11:25:23;;;;;;;0.50;0.50;;;12.00;99.90;;;;;;5077129;28;20071;-73
2023/10/31 11:27:54;;;;;;;0.60;0.60;;;11.90;99.90;;;;;;5077419;28;20087;-75
2023/10/31 11:30:25;;;;;;;0.60;0.60;;;11.90;99.90;;;;;;5077293;28;20080;-73
2023/10/31 11:32:55;;;;;;;0.60;0.60;;;11.90;99.90;;;;;;5077131;28;20037;-72
2023/10/31 11:35:23;;;;;;;0.60;0.60;;;12.00;99.90;;;;;;5076334;28;20064;-74
2023/10/31 11:37:50;;;;;;;0.60;0.60;;;12.00;99.90;;;;;;5076584;28;20036;-73
2023/10/31 11:40:24;;;;;;;0.60;0.60;;;12.00;99.90;;;;;;5077153;28;20036;-77
2023/10/31 11:42:54;;;;;;;0.60;0.60;;;12.00;99.90;;;;;;5076489;28;20041;-74
2023/10/31 11:45:43;;;;;;;0.60;0.60;;;12.00;99.90;;;;;;5076447;28;20055;-76
2023/10/31 11:48:10;;;;;;;0.60;0.60;;;12.00;99.90;;;;;;5074190;28;20044;-75
2023/10/31 11:50:37;;;;;;;0.60;0.60;;;12.10;99.90;;;;;;5076033;28;20043;-77
2023/10/31 11:53:06;;;;;;;0.60;0.60;;;12.40;99.90;;;;;;5076157;28;20082;-76
2023/10/31 11:55:36;;;;;;;0.57;0.57;;;12.00;99.90;;;;;;5075977;28;20044;-74
2023/10/31 11:58:19;;;;;;;0.60;0.60;;;12.00;99.90;;;;;;5075893;28;20041;-74
2023/10/31 12:00:50;;;;;;;1.27;1.17;;;12.00;99.90;;;;;;5075513;28;20325;-73
2023/10/31 12:03:22;;;;;;;0.60;0.60;;;12.00;99.90;;;;;;5074121;28;20111;-74
2023/10/31 12:05:54;;;;;;;0.60;0.60;;;12.00;99.90;;;;;;5075763;28;20369;-74
2023/10/31 12:08:43;;;;;;;0.55;0.55;;;12.00;99.90;;;;;;5075949;28;20090;-79
2023/10/31 12:11:13;;;;;;;0.50;0.50;;;12.00;99.90;;;;;;5075553;28;20064;-74
2023/10/31 12:13:41;;;;;;;0.50;0.50;;;12.00;99.90;;;;;;5076267;28;20060;-74
2023/10/31 12:16:09;;;;;;;0.60;0.60;;;12.00;99.90;;;;;;5074181;28;20048;-74
2023/10/31 12:18:35;;;;;;;0.60;0.60;;;12.00;99.90;;;;;;5074167;28;20045;-73
2023/10/31 12:21:01;;;;;;;0.60;0.60;;;12.00;99.90;;;;;;5074291;28;20037;-74
2023/10/31 12:23:27;;;;;;;0.60;0.60;;;12.00;99.90;;;;;;5075752;28;20048;-72
2023/10/31 12:25:54;;;;;;;0.60;0.60;;;12.10;99.90;;;;;;5074844;28;20101;-72
2023/10/31 12:28:20;;;;;;;0.50;0.50;;;12.40;99.90;;;;;;5075920;28;20043;-72
2023/10/31 12:30:47;;;;;;;0.70;0.70;;;12.20;99.90;;;;;;5075848;28;20040;-72
2023/10/31 12:33:13;;;;;;;;;;;12.20;99.90;;;;;;5076590;28;20086;-74
2023/10/31 12:35:39;;;;;;;0.60;0.60;;;12.30;99.90;;;;;;5075632;28;20299;-76
2023/10/31 12:38:05;;;;;;;0.60;0.60;;;12.30;99.90;;;;;;5075654;28;20514;-71
2023/10/31 12:40:31;;;;;;;0.60;0.60;;;12.30;99.90;;;;;;5075650;28;20278;-71
2023/10/31 12:42:58;;;;;;;0.55;0.55;;;12.40;99.90;;;;;;5075490;28;20037;-70
2023/10/31 12:45:24;;;;;;;7.93;2.22;;;12.50;99.90;;;;;;5075866;28;20090;-75